createdAt,value
2023-05-05T00:00:21.507Z,9.80
2023-05-05T00:02:48.576Z,10.10
2023-05-05T00:05:15.816Z,9.30
2023-05-05T00:07:42.845Z,8.10
2023-05-05T00:10:10.744Z,9.35
2023-05-05T00:12:37.857Z,8.52
2023-05-05T00:15:05.096Z,7.83
2023-05-05T00:17:32.026Z,8.50
2023-05-05T00:19:59.703Z,9.68
2023-05-05T00:22:26.434Z,9.68
2023-05-05T00:24:53.171Z,10.18
2023-05-05T00:27:20.075Z,11.33
2023-05-05T00:29:46.797Z,6.75
2023-05-05T00:32:13.534Z,10.27
2023-05-05T00:34:40.253Z,9.10
2023-05-05T00:37:07.333Z,8.75
2023-05-05T00:39:34.371Z,7.40
2023-05-05T00:42:01.089Z,4.93
2023-05-05T00:44:41.687Z,5.70
2023-05-05T00:47:09.522Z,5.80
2023-05-05T00:49:36.921Z,4.88
2023-05-05T00:52:08.888Z,5.40
2023-05-05T00:54:36.595Z,5.35
2023-05-05T00:57:04.223Z,4.97
2023-05-05T00:59:32.759Z,4.65
2023-05-05T01:02:00.153Z,4.97
2023-05-05T01:04:27.867Z,4.90
2023-05-05T01:07:16.236Z,4.75
2023-05-05T01:10:17.991Z,4.72
2023-05-05T01:13:05.424Z,5.00
2023-05-05T01:15:44.099Z,5.00
2023-05-05T01:18:33.223Z,4.80
2023-05-05T01:21:23.677Z,4.63
2023-05-05T01:24:07.871Z,4.80
2023-05-05T01:26:59.211Z,4.53
2023-05-05T01:29:55.556Z,4.22
2023-05-05T01:32:47.286Z,4.03
2023-05-05T01:35:20.740Z,4.60
2023-05-05T01:38:06.836Z,4.40
2023-05-05T01:40:40.853Z,4.25
2023-05-05T01:43:09.808Z,3.85
2023-05-05T01:45:41.533Z,4.00
2023-05-05T01:48:09.089Z,3.90
2023-05-05T01:50:36.868Z,4.00
2023-05-05T01:53:06.241Z,3.55
2023-05-05T01:55:34.551Z,4.18
2023-05-05T01:58:03.525Z,3.80
2023-05-05T02:00:31.772Z,4.10
2023-05-05T02:03:00.472Z,4.70
2023-05-05T02:05:28.396Z,5.07
2023-05-05T02:07:58.595Z,5.40
2023-05-05T02:10:26.232Z,5.73
2023-05-05T02:12:53.857Z,6.13
2023-05-05T02:15:22.740Z,6.28
2023-05-05T02:17:54.382Z,6.20
2023-05-05T02:20:24.122Z,6.30
2023-05-05T02:22:50.935Z,6.50
2023-05-05T02:25:17.951Z,6.50
2023-05-05T02:27:46.299Z,6.63
2023-05-05T02:30:15.897Z,6.65
2023-05-05T02:32:56.613Z,6.85
2023-05-05T02:35:27.346Z,7.43
2023-05-05T02:38:01.878Z,7.32
2023-05-05T02:40:31.784Z,7.60
2023-05-05T02:43:03.642Z,7.57
2023-05-05T02:45:30.834Z,7.05
2023-05-05T02:47:57.572Z,7.60
2023-05-05T02:50:24.271Z,7.20
2023-05-05T02:52:51.063Z,6.63
2023-05-05T02:55:17.912Z,7.00
2023-05-05T02:57:49.042Z,6.25
2023-05-05T03:00:24.091Z,6.27
2023-05-05T03:03:14.381Z,5.72
2023-05-05T03:05:45.964Z,5.13
2023-05-05T03:08:29.648Z,4.60
2023-05-05T03:11:06.665Z,4.10
2023-05-05T03:13:36.884Z,4.10
2023-05-05T03:16:07.419Z,3.70
2023-05-05T03:18:36.014Z,3.40
2023-05-05T03:21:08.772Z,3.60
2023-05-05T03:23:36.412Z,4.05
2023-05-05T03:26:03.278Z,4.30
2023-05-05T03:28:30.128Z,4.20
2023-05-05T03:30:57.267Z,4.28
2023-05-05T03:33:23.975Z,3.65
2023-05-05T03:35:50.828Z,4.30
2023-05-05T03:38:17.851Z,4.30
2023-05-05T03:40:45.029Z,4.70
2023-05-05T03:43:12.346Z,4.93
2023-05-05T03:45:39.208Z,4.95
2023-05-05T03:48:06.927Z,4.80
2023-05-05T03:50:33.688Z,4.37
2023-05-05T03:53:00.407Z,4.75
2023-05-05T03:55:27.231Z,4.97
2023-05-05T03:57:54.455Z,5.10
2023-05-05T04:00:22.617Z,5.75
2023-05-05T04:02:49.389Z,5.70
2023-05-05T04:05:16.218Z,5.65
2023-05-05T04:07:42.960Z,5.40
2023-05-05T04:10:10.212Z,5.22
2023-05-05T04:12:37.196Z,5.90
2023-05-05T04:15:04.310Z,5.90
2023-05-05T04:17:31.290Z,6.25
2023-05-05T04:19:58.017Z,6.63
2023-05-05T04:22:24.714Z,10.25
2023-05-05T04:24:51.679Z,7.35
2023-05-05T04:27:18.475Z,6.70
2023-05-05T04:29:45.294Z,6.65
2023-05-05T04:32:12.102Z,6.38
2023-05-05T04:34:38.793Z,6.57
2023-05-05T04:37:05.492Z,7.20
2023-05-05T04:39:32.253Z,6.93
2023-05-05T04:41:58.958Z,6.85
2023-05-05T04:44:25.795Z,7.30
2023-05-05T04:46:52.744Z,7.13
2023-05-05T04:49:19.691Z,7.95
2023-05-05T04:51:46.870Z,7.97
2023-05-05T04:54:13.656Z,7.55
2023-05-05T04:56:40.842Z,7.90
2023-05-05T04:59:07.920Z,7.90
2023-05-05T05:01:36.276Z,7.97
2023-05-05T05:04:05.432Z,8.17
2023-05-05T05:06:32.256Z,8.32
2023-05-05T05:08:59.050Z,8.75
2023-05-05T05:11:26.177Z,9.20
2023-05-05T05:13:53.263Z,8.52
2023-05-05T05:16:20.132Z,8.80
2023-05-05T05:18:46.884Z,9.05
2023-05-05T05:21:13.691Z,9.05
2023-05-05T05:23:40.410Z,9.73
2023-05-05T05:26:07.324Z,9.57
2023-05-05T05:28:34.080Z,10.40
2023-05-05T05:31:00.847Z,10.50
2023-05-05T05:33:27.642Z,10.90
2023-05-05T05:35:54.401Z,11.23
2023-05-05T05:38:21.213Z,11.25
2023-05-05T05:40:47.994Z,11.50
2023-05-05T05:43:14.808Z,11.48
2023-05-05T05:45:41.712Z,12.00
2023-05-05T05:48:08.678Z,11.85
2023-05-05T05:50:35.927Z,12.02
2023-05-05T05:53:02.646Z,11.57
2023-05-05T05:55:29.374Z,12.30
2023-05-05T05:57:56.123Z,12.77
2023-05-05T06:00:22.959Z,12.90
2023-05-05T06:02:51.337Z,13.20
2023-05-05T06:05:18.212Z,13.30
2023-05-05T06:07:44.938Z,13.73
2023-05-05T06:10:26.778Z,12.83
2023-05-05T06:12:54.969Z,13.07
2023-05-05T06:15:21.818Z,13.63
2023-05-05T06:17:49.683Z,13.60
2023-05-05T06:20:16.577Z,13.15
2023-05-05T06:22:43.304Z,13.53
2023-05-05T06:25:10.322Z,13.50
2023-05-05T06:27:37.064Z,14.27
2023-05-05T06:30:04.082Z,13.75
2023-05-05T06:32:30.856Z,13.90
2023-05-05T06:34:57.709Z,12.57
2023-05-05T06:37:28.504Z,12.13
2023-05-05T06:39:56.816Z,11.38
2023-05-05T06:42:23.570Z,10.88
2023-05-05T06:44:50.457Z,10.60
2023-05-05T06:47:17.183Z,11.23
2023-05-05T06:49:43.906Z,11.80
2023-05-05T06:52:10.678Z,11.60
2023-05-05T06:54:37.377Z,11.85
2023-05-05T06:57:04.057Z,11.00
2023-05-05T06:59:30.911Z,11.67
2023-05-05T07:01:57.696Z,10.30
2023-05-05T07:04:24.871Z,10.68
2023-05-05T07:06:51.802Z,11.55
2023-05-05T07:09:18.726Z,11.23
2023-05-05T07:11:46.628Z,10.50
2023-05-05T07:14:13.323Z,10.75
2023-05-05T07:16:40.116Z,9.93
2023-05-05T07:19:06.959Z,10.07
2023-05-05T07:21:36.769Z,9.77
2023-05-05T07:24:03.950Z,10.20
2023-05-05T07:26:31.069Z,10.15
2023-05-05T07:28:58.877Z,9.77
2023-05-05T07:31:27.842Z,8.10
2023-05-05T07:33:54.692Z,7.97
2023-05-05T07:36:21.428Z,7.73
2023-05-05T07:38:48.148Z,7.50
2023-05-05T07:41:15.109Z,7.00
2023-05-05T07:43:44.240Z,6.20
2023-05-05T07:46:12.017Z,7.70
2023-05-05T07:48:41.565Z,5.73
2023-05-05T07:51:09.284Z,5.78
2023-05-05T07:53:36.318Z,7.65
2023-05-05T07:56:03.223Z,7.80
2023-05-05T07:58:29.920Z,7.75
2023-05-05T08:00:56.811Z,8.40
2023-05-05T08:03:24.892Z,7.95
2023-05-05T08:05:54.828Z,7.72
2023-05-05T08:08:24.808Z,6.63
2023-05-05T08:10:53.154Z,7.05
2023-05-05T08:13:20.608Z,6.50
2023-05-05T08:15:47.889Z,6.47
2023-05-05T08:18:16.480Z,6.22
2023-05-05T08:20:43.290Z,7.10
2023-05-05T08:23:10.041Z,2.70
2023-05-05T08:25:36.883Z,2.50
2023-05-05T08:28:03.594Z,1.92
2023-05-05T08:30:30.852Z,2.30
2023-05-05T08:32:57.720Z,2.10
2023-05-05T08:35:24.642Z,2.15
2023-05-05T08:37:51.904Z,2.27
2023-05-05T08:40:21.316Z,2.10
2023-05-05T08:42:48.353Z,1.70
2023-05-05T08:45:15.879Z,1.38
2023-05-05T08:47:44.017Z,1.20
2023-05-05T08:50:11.562Z,0.80
2023-05-05T08:52:44.180Z,0.70
2023-05-05T08:55:24.118Z,0.70
2023-05-05T08:57:58.229Z,0.70
2023-05-05T09:00:27.241Z,0.93
2023-05-05T09:02:57.208Z,0.80
2023-05-05T09:05:24.895Z,0.73
2023-05-05T09:07:51.784Z,1.00
2023-05-05T09:10:19.297Z,1.13
2023-05-05T09:12:46.199Z,1.42
2023-05-05T09:15:14.949Z,1.33
2023-05-05T09:17:42.363Z,1.88
2023-05-05T09:20:14.223Z,1.70
2023-05-05T09:22:42.596Z,1.92
2023-05-05T09:25:12.093Z,2.38
2023-05-05T09:27:42.959Z,2.10
2023-05-05T09:30:14.145Z,2.50
2023-05-05T09:32:51.863Z,2.20
2023-05-05T09:35:20.083Z,2.10
2023-05-05T09:37:47.495Z,1.83
2023-05-05T09:40:18.923Z,1.90
2023-05-05T09:42:46.146Z,1.77
2023-05-05T09:45:19.028Z,2.40
2023-05-05T09:47:46.933Z,2.15
2023-05-05T09:50:16.305Z,2.30
2023-05-05T09:52:43.335Z,2.17
2023-05-05T09:55:19.225Z,2.60
2023-05-05T09:57:47.513Z,2.60
2023-05-05T10:00:14.887Z,3.20
2023-05-05T10:02:41.887Z,3.28
2023-05-05T10:05:11.607Z,3.30
2023-05-05T10:07:40.160Z,3.42
2023-05-05T10:10:15.511Z,3.90
2023-05-05T10:12:42.740Z,4.30
2023-05-05T10:15:11.278Z,5.05
2023-05-05T10:20:20.142Z,4.90
2023-05-05T10:22:54.851Z,5.50
2023-05-05T10:25:31.130Z,6.43
2023-05-05T10:28:01.289Z,6.50
2023-05-05T10:30:32.144Z,5.80
2023-05-05T10:33:30.848Z,5.53
2023-05-05T10:36:02.514Z,5.30
2023-05-05T10:38:31.624Z,5.75
2023-05-05T10:41:00.800Z,6.20
2023-05-05T10:43:29.673Z,6.30
2023-05-05T10:45:57.070Z,6.60
2023-05-05T10:48:38.012Z,7.07
2023-05-05T10:51:39.442Z,6.60
2023-05-05T10:54:19.262Z,7.25
2023-05-05T10:56:47.373Z,6.50
2023-05-05T10:59:36.326Z,6.95
2023-05-05T11:02:29.818Z,7.50
2023-05-05T11:05:18.133Z,7.85
2023-05-05T11:07:46.517Z,8.30
2023-05-05T11:10:15.120Z,7.63
2023-05-05T11:13:02.633Z,7.80
2023-05-05T11:15:29.662Z,7.30
2023-05-05T11:17:58.297Z,8.07
2023-05-05T11:20:40.167Z,7.25
2023-05-05T11:23:07.283Z,7.00
2023-05-05T11:25:37.514Z,6.53
2023-05-05T11:28:21.786Z,7.53
2023-05-05T11:31:00.521Z,6.72
2023-05-05T11:33:33.188Z,6.40
2023-05-05T11:36:04.231Z,5.60
2023-05-05T11:38:47.013Z,5.85
2023-05-05T11:41:34.989Z,4.45
2023-05-05T11:44:14.700Z,3.70
2023-05-05T11:47:04.403Z,3.55
2023-05-05T11:49:31.951Z,3.30
2023-05-05T11:52:10.152Z,3.72
2023-05-05T11:54:50.221Z,3.53
2023-05-05T11:57:21.096Z,3.85
2023-05-05T12:00:06.127Z,3.42
2023-05-05T12:02:33.470Z,3.87
2023-05-05T12:05:01.368Z,3.55
2023-05-05T12:07:30.902Z,3.70
2023-05-05T12:09:58.001Z,3.70
2023-05-05T12:12:42.817Z,4.13
2023-05-05T12:15:10.140Z,3.80
2023-05-05T12:17:46.206Z,3.92
2023-05-05T12:20:35.084Z,3.75
2023-05-05T12:23:04.059Z,3.53
2023-05-05T12:25:40.608Z,3.65
2023-05-05T12:28:08.659Z,3.50
2023-05-05T12:30:36.047Z,3.85
2023-05-05T12:33:05.075Z,3.95
2023-05-05T12:35:32.358Z,3.78
2023-05-05T12:37:59.313Z,4.10
2023-05-05T12:40:47.168Z,4.30
2023-05-05T12:43:32.810Z,3.80
2023-05-05T12:46:12.046Z,3.28
2023-05-05T12:48:40.563Z,4.05
2023-05-05T12:51:25.708Z,5.00
2023-05-05T12:54:04.671Z,5.90
2023-05-05T12:56:39.112Z,5.82
2023-05-05T12:59:08.157Z,5.72
2023-05-05T13:01:58.215Z,6.10
2023-05-05T13:04:26.243Z,5.60
2023-05-05T13:07:11.613Z,3.03
2023-05-05T13:09:38.646Z,4.00
2023-05-05T13:12:07.164Z,4.38
2023-05-05T13:14:34.806Z,4.55
2023-05-05T13:17:01.679Z,4.30
2023-05-05T13:19:28.820Z,3.83
2023-05-05T13:21:56.579Z,3.40
2023-05-05T13:24:37.940Z,2.70
2023-05-05T13:27:10.566Z,2.30
2023-05-05T13:29:37.340Z,2.30
2023-05-05T13:32:04.300Z,2.30
2023-05-05T13:34:31.074Z,2.00
2023-05-05T13:36:57.835Z,2.28
2023-05-05T13:39:24.718Z,2.28
2023-05-05T13:41:51.514Z,2.13
2023-05-05T13:44:18.321Z,2.90
2023-05-05T13:46:45.348Z,2.90
2023-05-05T13:49:12.065Z,3.00
2023-05-05T13:51:39.197Z,2.90
2023-05-05T13:54:06.961Z,2.53
2023-05-05T13:56:34.786Z,2.30
2023-05-05T13:59:02.518Z,2.10
2023-05-05T14:01:30.243Z,1.38
2023-05-05T14:03:57.977Z,1.80
2023-05-05T14:06:27.762Z,2.13
2023-05-05T14:08:54.719Z,1.80
2023-05-05T14:11:21.473Z,1.95
2023-05-05T14:13:49.066Z,2.00
2023-05-05T14:16:17.032Z,1.98
2023-05-05T14:18:43.799Z,1.77
2023-05-05T14:21:10.666Z,1.77
2023-05-05T14:23:37.378Z,1.80
2023-05-05T14:26:04.238Z,1.70
2023-05-05T14:28:31.181Z,1.40
2023-05-05T14:30:58.003Z,1.70
2023-05-05T14:33:24.725Z,1.70
2023-05-05T14:35:52.643Z,1.60
2023-05-05T14:38:20.220Z,1.63
2023-05-05T14:40:46.994Z,1.33
2023-05-05T14:43:14.777Z,1.38
2023-05-05T14:45:41.700Z,1.40
2023-05-05T14:48:08.523Z,1.38
2023-05-05T14:50:35.270Z,1.35
2023-05-05T14:53:04.203Z,1.10
2023-05-05T14:55:31.160Z,1.70
2023-05-05T14:57:57.827Z,1.57
2023-05-05T15:00:26.565Z,1.40
2023-05-05T15:02:53.418Z,1.30
2023-05-05T15:05:20.318Z,1.40
2023-05-05T15:07:47.173Z,1.50
2023-05-05T15:10:14.043Z,1.47
2023-05-05T15:12:42.255Z,1.50
2023-05-05T15:15:09.634Z,1.50
2023-05-05T15:17:38.647Z,1.38
2023-05-05T15:20:06.825Z,1.63
2023-05-05T15:22:33.579Z,1.50
2023-05-05T15:25:00.298Z,1.83
2023-05-05T15:27:27.091Z,1.63
2023-05-05T15:29:54.485Z,1.67
2023-05-05T15:32:21.280Z,1.77
2023-05-05T15:34:50.210Z,1.87
2023-05-05T15:37:17.384Z,1.90
2023-05-05T15:39:44.212Z,2.22
2023-05-05T15:42:11.153Z,2.60
2023-05-05T15:44:38.233Z,2.90
2023-05-05T15:47:07.058Z,2.60
2023-05-05T15:49:33.982Z,2.88
2023-05-05T15:52:00.774Z,3.08
2023-05-05T15:54:27.616Z,3.10
2023-05-05T15:56:55.104Z,3.08
2023-05-05T15:59:21.944Z,3.10
2023-05-05T16:01:48.713Z,3.20
2023-05-05T16:04:15.658Z,3.22
2023-05-05T16:06:42.439Z,2.90
2023-05-05T16:09:09.263Z,3.63
2023-05-05T16:11:37.366Z,3.30
2023-05-05T16:14:04.264Z,3.38
2023-05-05T16:16:31.198Z,3.65
2023-05-05T16:18:57.972Z,3.50
2023-05-05T16:21:24.924Z,3.83
2023-05-05T16:23:51.711Z,3.57
2023-05-05T16:26:18.551Z,3.65
2023-05-05T16:28:45.261Z,3.88
2023-05-05T16:31:13.426Z,3.67
2023-05-05T16:33:41.296Z,3.85
2023-05-05T16:36:10.475Z,3.97
2023-05-05T16:38:38.005Z,3.67
2023-05-05T16:41:06.655Z,3.83
2023-05-05T16:43:33.999Z,3.40
2023-05-05T16:46:00.830Z,3.58
2023-05-05T16:48:27.633Z,3.53
2023-05-05T16:50:57.096Z,3.67
2023-05-05T16:53:24.350Z,3.40
2023-05-05T16:55:52.433Z,3.28
2023-05-05T16:58:22.783Z,3.83
2023-05-05T17:00:50.399Z,3.60
2023-05-05T17:03:18.426Z,3.75
2023-05-05T17:05:49.023Z,4.03
2023-05-05T17:08:16.813Z,3.70
2023-05-05T17:10:44.734Z,3.70
2023-05-05T17:13:12.970Z,3.93
2023-05-05T17:15:40.140Z,3.78
2023-05-05T17:18:07.991Z,4.00
2023-05-05T17:20:35.118Z,4.38
2023-05-05T17:23:02.169Z,4.07
2023-05-05T17:25:29.202Z,3.60
2023-05-05T17:27:56.220Z,3.60
2023-05-05T17:30:23.736Z,4.05
2023-05-05T17:32:50.604Z,4.07
2023-05-05T17:35:17.361Z,4.25
2023-05-05T17:37:44.280Z,4.87
2023-05-05T17:40:11.236Z,4.43
2023-05-05T17:42:38.356Z,5.05
2023-05-05T17:45:05.705Z,4.20
2023-05-05T17:47:32.492Z,4.00
2023-05-05T17:49:59.563Z,4.27
2023-05-05T17:52:27.961Z,4.40
2023-05-05T17:54:54.994Z,4.35
2023-05-05T17:57:22.705Z,4.22
2023-05-05T17:59:50.136Z,4.30
2023-05-05T18:02:17.106Z,4.60
2023-05-05T18:04:43.939Z,4.15
2023-05-05T18:07:12.344Z,4.72
2023-05-05T18:09:39.723Z,4.63
2023-05-05T18:12:07.743Z,4.78
2023-05-05T18:14:34.530Z,4.53
2023-05-05T18:17:01.371Z,4.43
2023-05-05T18:19:28.059Z,4.90
2023-05-05T18:21:54.843Z,5.03
2023-05-05T18:24:21.716Z,4.88
2023-05-05T18:26:50.401Z,5.27
2023-05-05T18:29:18.303Z,5.50
2023-05-05T18:31:48.388Z,4.90
2023-05-05T18:34:16.843Z,4.30
2023-05-05T18:36:45.627Z,4.00
2023-05-05T18:39:14.917Z,4.07
2023-05-05T18:41:41.754Z,3.83
2023-05-05T18:44:15.890Z,3.65
2023-05-05T18:46:46.948Z,4.07
2023-05-05T18:49:15.037Z,4.00
2023-05-05T18:51:41.961Z,3.87
2023-05-05T18:54:09.090Z,3.75
2023-05-05T18:56:35.977Z,4.07
2023-05-05T18:59:02.730Z,4.00
2023-05-05T19:01:29.505Z,4.18
2023-05-05T19:04:01.616Z,3.73
2023-05-05T19:06:28.398Z,4.07
2023-05-05T19:08:56.684Z,4.15
2023-05-05T19:11:24.016Z,4.50
2023-05-05T19:13:51.314Z,4.78
2023-05-05T19:16:20.255Z,4.80
2023-05-05T19:18:47.067Z,4.30
2023-05-05T19:21:13.782Z,4.80
2023-05-05T19:23:40.996Z,4.80
2023-05-05T19:26:07.729Z,5.20
2023-05-05T19:28:34.522Z,4.83
2023-05-05T19:31:01.417Z,5.28
2023-05-05T19:33:28.353Z,4.95
2023-05-05T19:35:55.059Z,4.88
2023-05-05T19:38:21.727Z,5.00
2023-05-05T19:40:48.619Z,4.90
2023-05-05T19:43:15.412Z,5.00
2023-05-05T19:45:42.201Z,4.65
2023-05-05T19:48:08.971Z,4.70
2023-05-05T19:50:35.737Z,4.70
2023-05-05T19:53:03.546Z,4.90
2023-05-05T19:55:30.316Z,4.60
2023-05-05T19:57:57.021Z,4.85
2023-05-05T20:00:23.949Z,4.63
2023-05-05T20:02:50.933Z,5.00
2023-05-05T20:05:17.888Z,4.43
2023-05-05T20:07:46.369Z,4.55
2023-05-05T20:10:13.568Z,4.68
2023-05-05T20:12:47.432Z,4.60
2023-05-05T20:15:20.644Z,4.57
2023-05-05T20:17:48.406Z,4.40
2023-05-05T20:20:20.285Z,4.25
2023-05-05T20:22:48.298Z,4.28
2023-05-05T20:25:18.848Z,4.57
2023-05-05T20:27:45.904Z,4.28
2023-05-05T20:30:13.244Z,4.13
2023-05-05T20:32:40.381Z,4.90
2023-05-05T20:35:07.885Z,5.20
2023-05-05T20:37:34.609Z,5.63
2023-05-05T20:40:01.367Z,5.80
2023-05-05T20:42:29.657Z,5.63
2023-05-05T20:44:56.789Z,6.00
2023-05-05T20:47:24.368Z,5.38
2023-05-05T20:49:52.422Z,5.18
2023-05-05T20:52:19.544Z,5.55
2023-05-05T20:54:46.228Z,5.00
2023-05-05T20:57:12.915Z,4.95
2023-05-05T20:59:39.628Z,5.00
2023-05-05T21:02:06.462Z,5.25
2023-05-05T21:04:33.243Z,5.30
2023-05-05T21:06:59.997Z,5.50
2023-05-05T21:09:26.837Z,6.15
2023-05-05T21:11:53.500Z,6.22
2023-05-05T21:14:20.331Z,5.65
2023-05-05T21:16:48.236Z,5.72
2023-05-05T21:19:15.045Z,6.13
2023-05-05T21:21:41.732Z,6.20
2023-05-05T21:24:08.585Z,6.40
2023-05-05T21:26:35.800Z,6.30
2023-05-05T21:29:02.620Z,6.50
2023-05-05T21:31:29.463Z,6.03
2023-05-05T21:33:56.241Z,6.20
2023-05-05T21:36:23.053Z,6.05
2023-05-05T21:38:49.766Z,5.93
2023-05-05T21:41:16.772Z,6.78
2023-05-05T21:43:43.639Z,6.37
2023-05-05T21:46:10.697Z,6.80
2023-05-05T21:48:39.127Z,6.50
2023-05-05T21:51:06.773Z,6.55
2023-05-05T21:53:33.631Z,6.47
2023-05-05T21:56:01.012Z,7.13
2023-05-05T21:58:27.852Z,7.53
2023-05-05T22:00:54.643Z,6.95
2023-05-05T22:03:21.504Z,6.72
2023-05-05T22:05:48.224Z,7.50
2023-05-05T22:08:14.986Z,7.30
2023-05-05T22:10:41.801Z,7.03
2023-05-05T22:13:10.425Z,7.88
2023-05-05T22:15:46.195Z,8.98
2023-05-05T22:18:14.720Z,9.20
2023-05-05T22:20:41.563Z,10.33
2023-05-05T22:23:08.544Z,9.70
2023-05-05T22:25:35.757Z,9.50
2023-05-05T22:28:02.649Z,9.45
2023-05-05T22:30:29.365Z,9.25
2023-05-05T22:32:56.321Z,9.57
2023-05-05T22:35:23.348Z,9.32
2023-05-05T22:37:50.142Z,9.73
2023-05-05T22:40:17.182Z,9.68
2023-05-05T22:42:43.952Z,9.70
2023-05-05T22:45:11.301Z,9.60
2023-05-05T22:47:38.113Z,10.13
2023-05-05T22:50:12.717Z,10.20
2023-05-05T22:52:39.557Z,9.27
2023-05-05T22:55:06.587Z,9.02
2023-05-05T22:57:35.706Z,8.77
2023-05-05T23:00:03.687Z,9.20
2023-05-05T23:02:30.784Z,9.82
2023-05-05T23:04:57.540Z,9.65
2023-05-05T23:07:24.276Z,9.68
2023-05-05T23:09:50.966Z,10.33
2023-05-05T23:12:17.893Z,10.30
2023-05-05T23:14:44.873Z,10.23
2023-05-05T23:17:11.771Z,10.27
2023-05-05T23:19:38.529Z,10.63
2023-05-05T23:22:05.277Z,10.67
2023-05-05T23:24:31.967Z,11.05
2023-05-05T23:27:02.072Z,10.38
2023-05-05T23:29:29.367Z,10.18
2023-05-05T23:31:56.355Z,10.55
2023-05-05T23:34:23.144Z,10.23
2023-05-05T23:36:50.066Z,10.65
2023-05-05T23:39:16.746Z,10.43
2023-05-05T23:41:43.422Z,11.13
2023-05-05T23:44:10.271Z,10.73
2023-05-05T23:46:37.145Z,10.80
2023-05-05T23:49:03.937Z,11.10
2023-05-05T23:51:31.130Z,10.75
2023-05-05T23:53:57.903Z,12.15
2023-05-05T23:56:25.073Z,11.55
2023-05-05T23:58:53.125Z,11.67
